sensor_id;sensor_type;location;lat;lon;timestamp;temperature;humidity
18268;DHT22;9260;49.998;19.880;2024-03-02T00:06:22;3.50;1.00
18268;DHT22;9260;49.998;19.880;2024-03-02T00:16:29;2.60;1.00
18268;DHT22;9260;49.998;19.880;2024-03-02T00:26:34;2.50;1.00
18268;DHT22;9260;49.998;19.880;2024-03-02T00:36:37;2.40;1.00
18268;DHT22;9260;49.998;19.880;2024-03-02T00:46:42;2.50;1.00
18268;DHT22;9260;49.998;19.880;2024-03-02T00:56:46;2.00;1.00
18268;DHT22;9260;49.998;19.880;2024-03-02T01:06:51;2.50;1.00
18268;DHT22;9260;49.998;19.880;2024-03-02T01:16:55;2.80;1.00
18268;DHT22;9260;49.998;19.880;2024-03-02T01:26:59;2.60;1.00
18268;DHT22;9260;49.998;19.880;2024-03-02T01:37:03;2.30;1.00
18268;DHT22;9260;49.998;19.880;2024-03-02T01:47:07;2.40;1.00
18268;DHT22;9260;49.998;19.880;2024-03-02T01:57:11;2.30;1.00
18268;DHT22;9260;49.998;19.880;2024-03-02T02:07:15;2.00;1.00
18268;DHT22;9260;49.998;19.880;2024-03-02T02:17:19;1.30;1.00
18268;DHT22;9260;49.998;19.880;2024-03-02T02:27:24;2.00;1.00
18268;DHT22;9260;49.998;19.880;2024-03-02T02:37:27;2.20;1.00
18268;DHT22;9260;49.998;19.880;2024-03-02T02:47:31;1.60;1.00
18268;DHT22;9260;49.998;19.880;2024-03-02T02:57:37;1.70;1.00
18268;DHT22;9260;49.998;19.880;2024-03-02T03:07:43;1.30;1.00
18268;DHT22;9260;49.998;19.880;2024-03-02T03:17:47;1.50;1.00
18268;DHT22;9260;49.998;19.880;2024-03-02T03:27:51;1.30;1.00
18268;DHT22;9260;49.998;19.880;2024-03-02T03:37:55;1.20;1.00
18268;DHT22;9260;49.998;19.880;2024-03-02T03:47:59;1.30;1.00
18268;DHT22;9260;49.998;19.880;2024-03-02T03:58:03;1.40;1.00
18268;DHT22;9260;49.998;19.880;2024-03-02T04:08:08;1.30;1.00
18268;DHT22;9260;49.998;19.880;2024-03-02T04:18:13;0.90;1.00
18268;DHT22;9260;49.998;19.880;2024-03-02T04:28:17;1.00;1.00
18268;DHT22;9260;49.998;19.880;2024-03-02T04:38:20;0.80;99.90
18268;DHT22;9260;49.998;19.880;2024-03-02T04:48:25;0.70;99.90
18268;DHT22;9260;49.998;19.880;2024-03-02T04:58:29;0.90;1.00
18268;DHT22;9260;49.998;19.880;2024-03-02T05:08:34;0.50;1.00
18268;DHT22;9260;49.998;19.880;2024-03-02T05:18:37;0.40;1.00
18268;DHT22;9260;49.998;19.880;2024-03-02T05:28:42;0.30;99.90
18268;DHT22;9260;49.998;19.880;2024-03-02T05:38:45;0.80;1.00
18268;DHT22;9260;49.998;19.880;2024-03-02T05:48:50;0.70;99.90
18268;DHT22;9260;49.998;19.880;2024-03-02T05:58:53;0.80;99.90
18268;DHT22;9260;49.998;19.880;2024-03-02T06:09:11;1.10;99.90
18268;DHT22;9260;49.998;19.880;2024-03-02T06:19:14;1.50;99.90
18268;DHT22;9260;49.998;19.880;2024-03-02T06:29:19;1.70;99.90
18268;DHT22;9260;49.998;19.880;2024-03-02T06:39:23;2.50;99.90
18268;DHT22;9260;49.998;19.880;2024-03-02T06:49:29;2.50;99.90
18268;DHT22;9260;49.998;19.880;2024-03-02T06:59:32;3.80;99.90
18268;DHT22;9260;49.998;19.880;2024-03-02T07:09:37;3.20;99.90
18268;DHT22;9260;49.998;19.880;2024-03-02T07:19:40;3.20;99.90
18268;DHT22;9260;49.998;19.880;2024-03-02T07:29:45;3.70;99.90
18268;DHT22;9260;49.998;19.880;2024-03-02T07:39:50;4.70;99.90
18268;DHT22;9260;49.998;19.880;2024-03-02T07:49:55;4.20;99.90
18268;DHT22;9260;49.998;19.880;2024-03-02T07:59:58;5.10;99.90
18268;DHT22;9260;49.998;19.880;2024-03-02T08:10:14;5.20;99.90
18268;DHT22;9260;49.998;19.880;2024-03-02T08:20:17;5.90;1.00
18268;DHT22;9260;49.998;19.880;2024-03-02T08:30:22;6.30;1.00
18268;DHT22;9260;49.998;19.880;2024-03-02T08:40:25;6.30;1.00
18268;DHT22;9260;49.998;19.880;2024-03-02T08:50:31;6.90;1.00
18268;DHT22;9260;49.998;19.880;2024-03-02T09:00:34;6.70;99.90
18268;DHT22;9260;49.998;19.880;2024-03-02T09:10:39;6.50;1.00
18268;DHT22;9260;49.998;19.880;2024-03-02T09:20:42;7.00;1.00
18268;DHT22;9260;49.998;19.880;2024-03-02T09:30:47;7.80;1.00
18268;DHT22;9260;49.998;19.880;2024-03-02T09:40:50;7.60;1.00
18268;DHT22;9260;49.998;19.880;2024-03-02T09:50:55;7.80;1.00
18268;DHT22;9260;49.998;19.880;2024-03-02T10:00:58;8.20;1.00
18268;DHT22;9260;49.998;19.880;2024-03-02T10:11:03;8.50;1.00
18268;DHT22;9260;49.998;19.880;2024-03-02T10:21:12;8.90;1.00
18268;DHT22;9260;49.998;19.880;2024-03-02T10:31:18;9.10;1.00
18268;DHT22;9260;49.998;19.880;2024-03-02T10:41:22;9.70;1.00
18268;DHT22;9260;49.998;19.880;2024-03-02T10:51:28;9.90;1.00
18268;DHT22;9260;49.998;19.880;2024-03-02T11:01:33;10.60;1.00
18268;DHT22;9260;49.998;19.880;2024-03-02T11:11:40;12.50;1.00
18268;DHT22;9260;49.998;19.880;2024-03-02T11:21:44;13.10;1.00
18268;DHT22;9260;49.998;19.880;2024-03-02T11:31:59;13.80;1.00
18268;DHT22;9260;49.998;19.880;2024-03-02T11:42:03;14.70;1.00
18268;DHT22;9260;49.998;19.880;2024-03-02T11:52:09;13.30;1.00
18268;DHT22;9260;49.998;19.880;2024-03-02T12:02:14;12.40;1.00
18268;DHT22;9260;49.998;19.880;2024-03-02T12:12:21;11.80;1.00
18268;DHT22;9260;49.998;19.880;2024-03-02T12:22:24;11.40;1.00
18268;DHT22;9260;49.998;19.880;2024-03-02T12:32:29;10.80;1.00
18268;DHT22;9260;49.998;19.880;2024-03-02T12:42:32;11.80;1.00
18268;DHT22;9260;49.998;19.880;2024-03-02T12:52:37;12.30;1.00
18268;DHT22;9260;49.998;19.880;2024-03-02T13:02:40;12.70;1.00
18268;DHT22;9260;49.998;19.880;2024-03-02T13:12:46;18.70;1.00
18268;DHT22;9260;49.998;19.880;2024-03-02T13:22:49;17.60;1.00
18268;DHT22;9260;49.998;19.880;2024-03-02T13:32:54;15.50;1.00
18268;DHT22;9260;49.998;19.880;2024-03-02T13:42:57;14.80;1.00
18268;DHT22;9260;49.998;19.880;2024-03-02T13:53:02;13.70;1.00
18268;DHT22;9260;49.998;19.880;2024-03-02T14:03:06;13.60;1.00
18268;DHT22;9260;49.998;19.880;2024-03-02T14:13:11;14.00;1.00
18268;DHT22;9260;49.998;19.880;2024-03-02T14:23:14;14.50;1.00
18268;DHT22;9260;49.998;19.880;2024-03-02T14:33:21;14.70;1.00
18268;DHT22;9260;49.998;19.880;2024-03-02T14:43:24;13.70;1.00
18268;DHT22;9260;49.998;19.880;2024-03-02T14:53:29;12.70;1.00
18268;DHT22;9260;49.998;19.880;2024-03-02T15:03:32;12.80;1.00
18268;DHT22;9260;49.998;19.880;2024-03-02T15:13:37;11.60;1.00
18268;DHT22;9260;49.998;19.880;2024-03-02T15:23:40;11.50;1.00
18268;DHT22;9260;49.998;19.880;2024-03-02T15:33:45;11.10;1.00
18268;DHT22;9260;49.998;19.880;2024-03-02T15:43:48;10.90;1.00
18268;DHT22;9260;49.998;19.880;2024-03-02T15:53:53;10.60;1.00
18268;DHT22;9260;49.998;19.880;2024-03-02T16:03:56;10.20;1.00
18268;DHT22;9260;49.998;19.880;2024-03-02T16:14:01;9.80;1.00
18268;DHT22;9260;49.998;19.880;2024-03-02T16:24:05;8.80;1.00
18268;DHT22;9260;49.998;19.880;2024-03-02T16:34:10;7.90;1.00
18268;DHT22;9260;49.998;19.880;2024-03-02T16:44:13;7.60;1.00
18268;DHT22;9260;49.998;19.880;2024-03-02T16:54:18;7.30;1.00
18268;DHT22;9260;49.998;19.880;2024-03-02T17:04:22;6.90;1.00
18268;DHT22;9260;49.998;19.880;2024-03-02T17:14:27;6.60;1.00
18268;DHT22;9260;49.998;19.880;2024-03-02T17:24:30;7.60;1.00
18268;DHT22;9260;49.998;19.880;2024-03-02T17:34:35;6.50;1.00
18268;DHT22;9260;49.998;19.880;2024-03-02T17:44:38;6.10;1.00
18268;DHT22;9260;49.998;19.880;2024-03-02T17:54:43;4.80;1.00
18268;DHT22;9260;49.998;19.880;2024-03-02T18:04:46;5.70;1.00
18268;DHT22;9260;49.998;19.880;2024-03-02T18:14:51;5.00;1.00
18268;DHT22;9260;49.998;19.880;2024-03-02T18:24:54;5.00;1.00
18268;DHT22;9260;49.998;19.880;2024-03-02T18:34:59;1.50;1.00
18268;DHT22;9260;49.998;19.880;2024-03-02T18:45:02;4.40;1.00
18268;DHT22;9260;49.998;19.880;2024-03-02T18:55:08;4.30;1.00
18268;DHT22;9260;49.998;19.880;2024-03-02T19:05:14;4.00;1.00
18268;DHT22;9260;49.998;19.880;2024-03-02T19:15:18;4.00;1.00
18268;DHT22;9260;49.998;19.880;2024-03-02T19:25:22;4.10;1.00
18268;DHT22;9260;49.998;19.880;2024-03-02T19:35:26;4.20;1.00
18268;DHT22;9260;49.998;19.880;2024-03-02T19:45:30;4.70;1.00
18268;DHT22;9260;49.998;19.880;2024-03-02T19:55:35;4.10;1.00
18268;DHT22;9260;49.998;19.880;2024-03-02T20:05:39;4.00;1.00
18268;DHT22;9260;49.998;19.880;2024-03-02T20:15:44;3.90;1.00
18268;DHT22;9260;49.998;19.880;2024-03-02T20:25:48;4.20;1.00
18268;DHT22;9260;49.998;19.880;2024-03-02T20:35:52;4.10;1.00
18268;DHT22;9260;49.998;19.880;2024-03-02T20:45:56;4.10;1.00
18268;DHT22;9260;49.998;19.880;2024-03-02T20:56:09;4.00;1.00
18268;DHT22;9260;49.998;19.880;2024-03-02T21:06:13;4.20;99.90
18268;DHT22;9260;49.998;19.880;2024-03-02T21:16:17;3.70;1.00
18268;DHT22;9260;49.998;19.880;2024-03-02T21:26:21;4.20;1.00
18268;DHT22;9260;49.998;19.880;2024-03-02T21:36:26;3.90;1.00
18268;DHT22;9260;49.998;19.880;2024-03-02T21:46:29;4.00;1.00
18268;DHT22;9260;49.998;19.880;2024-03-02T21:56:34;3.90;1.00
18268;DHT22;9260;49.998;19.880;2024-03-02T22:06:37;3.90;1.00
18268;DHT22;9260;49.998;19.880;2024-03-02T22:16:42;3.60;1.00
18268;DHT22;9260;49.998;19.880;2024-03-02T22:26:45;3.60;1.00
18268;DHT22;9260;49.998;19.880;2024-03-02T22:36:50;3.60;1.00
18268;DHT22;9260;49.998;19.880;2024-03-02T22:46:53;3.60;1.00
18268;DHT22;9260;49.998;19.880;2024-03-02T22:56:58;3.40;1.00
18268;DHT22;9260;49.998;19.880;2024-03-02T23:07:03;3.30;1.00
18268;DHT22;9260;49.998;19.880;2024-03-02T23:17:08;3.60;99.90
18268;DHT22;9260;49.998;19.880;2024-03-02T23:27:12;4.10;1.00
18268;DHT22;9260;49.998;19.880;2024-03-02T23:37:17;3.80;99.90
18268;DHT22;9260;49.998;19.880;2024-03-02T23:47:20;3.90;1.00
18268;DHT22;9260;49.998;19.880;2024-03-02T23:57:25;3.80;1.00
